Port Hedland Bedout Island, Australia
Current Conditions -  °F | °C
As of 2:00 AM on Monday 26 Jan 2015 (Local Time) from YPPD Reporting Station
Scattered Clouds Scattered Clouds  
Wind Chill: 82°   Ceiling: Unl
Heat Index: 91°   Visibility: 6mi
Dew Point: 77°   Wind: 10mph
Humidity: 84%   Direction: 300°WNW
Pressure: 29.68"   Gusts: NA
Location:  19.58°S, 119.1°E
Report Text: YPPD 251800Z AUTO 30009KT 9999 // SCT016 28/25 Q1005
Loading
Personal Weather Stations






























Interactive Weather Map New forecast layout! Learn more

10-Day Weather Forecast

Advertisements
Track Severe Weather on mobile